sensor_id;sensor_type;location;lat;lon;timestamp;P1;durP1;ratioP1;P2;durP2;ratioP2
64903;SDS011;51401;48.882;12.598;2024-03-25T00:01:39;3.65;;;1.80;;
64903;SDS011;51401;48.882;12.598;2024-03-25T00:04:04;2.70;;;1.73;;
64903;SDS011;51401;48.882;12.598;2024-03-25T00:06:30;4.38;;;2.50;;
64903;SDS011;51401;48.882;12.598;2024-03-25T00:08:58;5.60;;;2.03;;
64903;SDS011;51401;48.882;12.598;2024-03-25T00:11:24;2.63;;;1.85;;
64903;SDS011;51401;48.882;12.598;2024-03-25T00:13:50;4.30;;;1.77;;
64903;SDS011;51401;48.882;12.598;2024-03-25T00:16:15;3.70;;;1.80;;
64903;SDS011;51401;48.882;12.598;2024-03-25T00:18:41;2.90;;;1.73;;
64903;SDS011;51401;48.882;12.598;2024-03-25T00:21:07;2.65;;;1.92;;
64903;SDS011;51401;48.882;12.598;2024-03-25T00:23:32;2.42;;;1.52;;
64903;SDS011;51401;48.882;12.598;2024-03-25T00:25:57;2.47;;;1.90;;
64903;SDS011;51401;48.882;12.598;2024-03-25T00:28:22;2.72;;;1.92;;
64903;SDS011;51401;48.882;12.598;2024-03-25T00:30:48;2.92;;;1.65;;
64903;SDS011;51401;48.882;12.598;2024-03-25T00:33:13;4.90;;;2.10;;
64903;SDS011;51401;48.882;12.598;2024-03-25T00:35:38;3.38;;;1.95;;
64903;SDS011;51401;48.882;12.598;2024-03-25T00:38:04;3.20;;;1.70;;
64903;SDS011;51401;48.882;12.598;2024-03-25T00:40:29;3.78;;;1.92;;
64903;SDS011;51401;48.882;12.598;2024-03-25T00:42:55;2.95;;;2.00;;
64903;SDS011;51401;48.882;12.598;2024-03-25T00:45:20;2.60;;;1.75;;
64903;SDS011;51401;48.882;12.598;2024-03-25T00:47:45;3.60;;;1.80;;
64903;SDS011;51401;48.882;12.598;2024-03-25T00:50:11;4.18;;;1.58;;
64903;SDS011;51401;48.882;12.598;2024-03-25T00:52:36;3.22;;;2.10;;
64903;SDS011;51401;48.882;12.598;2024-03-25T00:55:01;2.20;;;1.63;;
64903;SDS011;51401;48.882;12.598;2024-03-25T00:57:27;3.97;;;1.75;;
64903;SDS011;51401;48.882;12.598;2024-03-25T00:59:54;4.35;;;1.83;;
64903;SDS011;51401;48.882;12.598;2024-03-25T01:02:20;3.15;;;1.75;;
64903;SDS011;51401;48.882;12.598;2024-03-25T01:04:45;3.87;;;2.10;;
64903;SDS011;51401;48.882;12.598;2024-03-25T01:07:10;2.60;;;1.90;;
64903;SDS011;51401;48.882;12.598;2024-03-25T01:09:35;2.80;;;1.60;;
64903;SDS011;51401;48.882;12.598;2024-03-25T01:12:01;2.55;;;1.42;;
64903;SDS011;51401;48.882;12.598;2024-03-25T01:14:26;2.55;;;1.30;;
64903;SDS011;51401;48.882;12.598;2024-03-25T01:16:51;2.83;;;2.00;;
64903;SDS011;51401;48.882;12.598;2024-03-25T01:19:17;3.60;;;1.80;;
64903;SDS011;51401;48.882;12.598;2024-03-25T01:21:43;3.22;;;1.45;;
64903;SDS011;51401;48.882;12.598;2024-03-25T01:24:09;2.03;;;1.55;;
64903;SDS011;51401;48.882;12.598;2024-03-25T01:26:34;2.95;;;1.80;;
64903;SDS011;51401;48.882;12.598;2024-03-25T01:28:59;2.45;;;1.60;;
64903;SDS011;51401;48.882;12.598;2024-03-25T01:31:25;2.60;;;2.08;;
64903;SDS011;51401;48.882;12.598;2024-03-25T01:33:50;2.40;;;1.92;;
64903;SDS011;51401;48.882;12.598;2024-03-25T01:36:16;2.83;;;1.60;;
64903;SDS011;51401;48.882;12.598;2024-03-25T01:38:45;2.38;;;1.67;;
64903;SDS011;51401;48.882;12.598;2024-03-25T01:41:11;2.90;;;1.70;;
64903;SDS011;51401;48.882;12.598;2024-03-25T01:43:40;2.60;;;1.90;;
64903;SDS011;51401;48.882;12.598;2024-03-25T01:46:05;2.95;;;2.10;;
64903;SDS011;51401;48.882;12.598;2024-03-25T01:48:31;3.95;;;1.90;;
64903;SDS011;51401;48.882;12.598;2024-03-25T01:50:57;2.72;;;1.65;;
64903;SDS011;51401;48.882;12.598;2024-03-25T01:53:23;4.00;;;1.60;;
64903;SDS011;51401;48.882;12.598;2024-03-25T01:55:49;1.88;;;1.50;;
64903;SDS011;51401;48.882;12.598;2024-03-25T01:58:18;3.20;;;1.65;;
64903;SDS011;51401;48.882;12.598;2024-03-25T02:00:44;3.55;;;2.00;;
64903;SDS011;51401;48.882;12.598;2024-03-25T02:03:09;4.13;;;2.10;;
64903;SDS011;51401;48.882;12.598;2024-03-25T02:05:34;2.55;;;1.90;;
64903;SDS011;51401;48.882;12.598;2024-03-25T02:08:00;2.50;;;1.52;;
64903;SDS011;51401;48.882;12.598;2024-03-25T02:10:27;3.03;;;1.80;;
64903;SDS011;51401;48.882;12.598;2024-03-25T02:12:53;2.92;;;1.95;;
64903;SDS011;51401;48.882;12.598;2024-03-25T02:15:20;3.28;;;1.98;;
64903;SDS011;51401;48.882;12.598;2024-03-25T02:17:45;2.38;;;1.73;;
64903;SDS011;51401;48.882;12.598;2024-03-25T02:20:10;2.17;;;1.90;;
64903;SDS011;51401;48.882;12.598;2024-03-25T02:22:38;2.47;;;1.80;;
64903;SDS011;51401;48.882;12.598;2024-03-25T02:25:05;2.65;;;1.55;;
64903;SDS011;51401;48.882;12.598;2024-03-25T02:27:35;3.35;;;2.10;;
64903;SDS011;51401;48.882;12.598;2024-03-25T02:32:39;2.20;;;1.77;;
64903;SDS011;51401;48.882;12.598;2024-03-25T02:35:05;2.90;;;1.70;;
64903;SDS011;51401;48.882;12.598;2024-03-25T02:37:33;4.18;;;2.20;;
64903;SDS011;51401;48.882;12.598;2024-03-25T02:39:59;5.53;;;2.10;;
64903;SDS011;51401;48.882;12.598;2024-03-25T02:42:27;3.10;;;2.13;;
64903;SDS011;51401;48.882;12.598;2024-03-25T02:44:57;3.80;;;2.35;;
64903;SDS011;51401;48.882;12.598;2024-03-25T02:47:23;3.65;;;2.38;;
64903;SDS011;51401;48.882;12.598;2024-03-25T02:49:49;3.67;;;2.03;;
64903;SDS011;51401;48.882;12.598;2024-03-25T02:52:14;3.75;;;2.55;;
64903;SDS011;51401;48.882;12.598;2024-03-25T02:54:39;3.47;;;2.25;;
64903;SDS011;51401;48.882;12.598;2024-03-25T02:57:05;3.17;;;2.25;;
64903;SDS011;51401;48.882;12.598;2024-03-25T02:59:30;4.45;;;2.10;;
64903;SDS011;51401;48.882;12.598;2024-03-25T03:01:55;4.40;;;2.40;;
64903;SDS011;51401;48.882;12.598;2024-03-25T03:04:21;2.63;;;2.20;;
64903;SDS011;51401;48.882;12.598;2024-03-25T03:06:46;7.22;;;2.90;;
64903;SDS011;51401;48.882;12.598;2024-03-25T03:09:11;3.50;;;2.20;;
64903;SDS011;51401;48.882;12.598;2024-03-25T03:11:36;3.50;;;1.93;;
64903;SDS011;51401;48.882;12.598;2024-03-25T03:14:02;5.30;;;2.17;;
64903;SDS011;51401;48.882;12.598;2024-03-25T03:16:27;3.83;;;1.77;;
64903;SDS011;51401;48.882;12.598;2024-03-25T03:18:54;3.38;;;2.10;;
64903;SDS011;51401;48.882;12.598;2024-03-25T03:21:19;3.40;;;2.17;;
64903;SDS011;51401;48.882;12.598;2024-03-25T03:23:44;3.75;;;2.25;;
64903;SDS011;51401;48.882;12.598;2024-03-25T03:26:10;3.58;;;2.08;;
64903;SDS011;51401;48.882;12.598;2024-03-25T03:28:35;3.60;;;2.25;;
64903;SDS011;51401;48.882;12.598;2024-03-25T03:31:00;2.95;;;2.10;;
64903;SDS011;51401;48.882;12.598;2024-03-25T03:33:25;3.92;;;2.13;;
64903;SDS011;51401;48.882;12.598;2024-03-25T03:35:51;4.78;;;2.35;;
64903;SDS011;51401;48.882;12.598;2024-03-25T03:38:16;4.88;;;2.70;;
64903;SDS011;51401;48.882;12.598;2024-03-25T03:40:42;4.90;;;2.30;;
64903;SDS011;51401;48.882;12.598;2024-03-25T03:43:07;4.50;;;2.65;;
64903;SDS011;51401;48.882;12.598;2024-03-25T03:45:33;3.42;;;2.25;;
64903;SDS011;51401;48.882;12.598;2024-03-25T03:48:00;3.47;;;2.15;;
64903;SDS011;51401;48.882;12.598;2024-03-25T03:50:25;3.78;;;2.30;;
64903;SDS011;51401;48.882;12.598;2024-03-25T03:52:51;2.90;;;2.03;;
64903;SDS011;51401;48.882;12.598;2024-03-25T03:55:16;3.47;;;2.40;;
64903;SDS011;51401;48.882;12.598;2024-03-25T03:57:41;4.65;;;2.17;;
64903;SDS011;51401;48.882;12.598;2024-03-25T04:00:07;4.22;;;2.00;;
64903;SDS011;51401;48.882;12.598;2024-03-25T04:02:33;3.83;;;1.92;;
64903;SDS011;51401;48.882;12.598;2024-03-25T04:04:59;2.58;;;1.80;;
64903;SDS011;51401;48.882;12.598;2024-03-25T04:07:24;4.13;;;1.95;;
64903;SDS011;51401;48.882;12.598;2024-03-25T04:09:53;2.13;;;1.60;;
64903;SDS011;51401;48.882;12.598;2024-03-25T04:12:18;2.95;;;1.90;;
64903;SDS011;51401;48.882;12.598;2024-03-25T04:14:46;3.22;;;1.95;;
64903;SDS011;51401;48.882;12.598;2024-03-25T04:17:11;3.08;;;1.73;;
64903;SDS011;51401;48.882;12.598;2024-03-25T04:19:37;3.95;;;2.05;;
64903;SDS011;51401;48.882;12.598;2024-03-25T04:22:02;3.43;;;2.10;;
64903;SDS011;51401;48.882;12.598;2024-03-25T04:24:28;3.05;;;1.90;;
64903;SDS011;51401;48.882;12.598;2024-03-25T04:26:53;3.53;;;1.98;;
64903;SDS011;51401;48.882;12.598;2024-03-25T04:29:18;2.30;;;1.80;;
64903;SDS011;51401;48.882;12.598;2024-03-25T04:31:44;2.97;;;2.00;;
64903;SDS011;51401;48.882;12.598;2024-03-25T04:34:09;3.20;;;1.90;;
64903;SDS011;51401;48.882;12.598;2024-03-25T04:36:34;2.53;;;2.00;;
64903;SDS011;51401;48.882;12.598;2024-03-25T04:38:59;3.00;;;2.00;;
64903;SDS011;51401;48.882;12.598;2024-03-25T04:41:25;3.83;;;1.90;;
64903;SDS011;51401;48.882;12.598;2024-03-25T04:43:50;3.45;;;1.67;;
64903;SDS011;51401;48.882;12.598;2024-03-25T04:46:15;2.70;;;1.90;;
64903;SDS011;51401;48.882;12.598;2024-03-25T04:48:40;3.43;;;2.03;;
64903;SDS011;51401;48.882;12.598;2024-03-25T04:51:06;3.38;;;2.38;;
64903;SDS011;51401;48.882;12.598;2024-03-25T04:53:31;4.72;;;2.35;;
64903;SDS011;51401;48.882;12.598;2024-03-25T04:55:57;3.95;;;2.20;;
64903;SDS011;51401;48.882;12.598;2024-03-25T04:58:22;3.60;;;2.00;;
64903;SDS011;51401;48.882;12.598;2024-03-25T05:00:47;5.10;;;2.20;;
64903;SDS011;51401;48.882;12.598;2024-03-25T05:03:12;3.10;;;2.25;;
64903;SDS011;51401;48.882;12.598;2024-03-25T05:05:38;5.68;;;2.42;;
64903;SDS011;51401;48.882;12.598;2024-03-25T05:08:04;3.17;;;1.98;;
64903;SDS011;51401;48.882;12.598;2024-03-25T05:10:29;2.85;;;1.90;;
64903;SDS011;51401;48.882;12.598;2024-03-25T05:12:55;6.22;;;2.50;;
64903;SDS011;51401;48.882;12.598;2024-03-25T05:15:20;3.50;;;1.90;;
64903;SDS011;51401;48.882;12.598;2024-03-25T05:17:46;3.03;;;2.47;;
64903;SDS011;51401;48.882;12.598;2024-03-25T05:20:11;3.88;;;1.95;;
64903;SDS011;51401;48.882;12.598;2024-03-25T05:22:36;3.53;;;2.00;;
64903;SDS011;51401;48.882;12.598;2024-03-25T05:25:02;5.35;;;2.22;;
64903;SDS011;51401;48.882;12.598;2024-03-25T05:27:27;3.20;;;2.20;;
64903;SDS011;51401;48.882;12.598;2024-03-25T05:29:52;3.50;;;2.03;;
64903;SDS011;51401;48.882;12.598;2024-03-25T05:32:17;2.47;;;2.17;;
64903;SDS011;51401;48.882;12.598;2024-03-25T05:34:46;4.55;;;2.45;;
64903;SDS011;51401;48.882;12.598;2024-03-25T05:37:12;2.85;;;2.20;;
64903;SDS011;51401;48.882;12.598;2024-03-25T05:39:38;3.95;;;2.55;;
64903;SDS011;51401;48.882;12.598;2024-03-25T05:42:03;5.13;;;2.45;;
64903;SDS011;51401;48.882;12.598;2024-03-25T05:44:28;5.82;;;2.75;;
64903;SDS011;51401;48.882;12.598;2024-03-25T05:46:54;4.97;;;2.23;;
64903;SDS011;51401;48.882;12.598;2024-03-25T05:49:19;4.22;;;2.30;;
64903;SDS011;51401;48.882;12.598;2024-03-25T05:51:44;3.93;;;2.43;;
64903;SDS011;51401;48.882;12.598;2024-03-25T05:54:09;3.43;;;2.60;;
64903;SDS011;51401;48.882;12.598;2024-03-25T05:56:35;4.07;;;2.55;;
64903;SDS011;51401;48.882;12.598;2024-03-25T05:59:00;4.05;;;2.50;;
64903;SDS011;51401;48.882;12.598;2024-03-25T06:01:26;4.93;;;2.60;;
64903;SDS011;51401;48.882;12.598;2024-03-25T06:03:52;7.53;;;3.08;;
64903;SDS011;51401;48.882;12.598;2024-03-25T06:06:17;4.22;;;2.80;;
64903;SDS011;51401;48.882;12.598;2024-03-25T06:08:43;3.83;;;2.50;;
64903;SDS011;51401;48.882;12.598;2024-03-25T06:11:09;3.67;;;2.50;;
64903;SDS011;51401;48.882;12.598;2024-03-25T06:13:34;4.90;;;2.35;;
64903;SDS011;51401;48.882;12.598;2024-03-25T06:15:59;6.60;;;2.47;;
64903;SDS011;51401;48.882;12.598;2024-03-25T06:18:25;3.72;;;2.47;;
64903;SDS011;51401;48.882;12.598;2024-03-25T06:20:50;5.32;;;2.53;;
64903;SDS011;51401;48.882;12.598;2024-03-25T06:23:25;4.00;;;2.65;;
64903;SDS011;51401;48.882;12.598;2024-03-25T06:25:53;4.93;;;2.83;;
64903;SDS011;51401;48.882;12.598;2024-03-25T06:28:20;4.03;;;2.92;;
64903;SDS011;51401;48.882;12.598;2024-03-25T06:30:46;4.43;;;2.55;;
64903;SDS011;51401;48.882;12.598;2024-03-25T06:33:32;4.63;;;2.30;;
64903;SDS011;51401;48.882;12.598;2024-03-25T06:36:16;4.07;;;3.00;;
64903;SDS011;51401;48.882;12.598;2024-03-25T06:38:42;5.95;;;2.88;;
64903;SDS011;51401;48.882;12.598;2024-03-25T06:41:08;4.55;;;2.53;;
64903;SDS011;51401;48.882;12.598;2024-03-25T06:43:33;3.60;;;2.35;;
64903;SDS011;51401;48.882;12.598;2024-03-25T06:45:59;3.58;;;2.58;;
64903;SDS011;51401;48.882;12.598;2024-03-25T06:48:24;5.90;;;2.75;;
64903;SDS011;51401;48.882;12.598;2024-03-25T06:50:56;4.20;;;2.92;;
64903;SDS011;51401;48.882;12.598;2024-03-25T06:53:22;4.35;;;2.53;;
64903;SDS011;51401;48.882;12.598;2024-03-25T06:55:55;4.05;;;2.63;;
64903;SDS011;51401;48.882;12.598;2024-03-25T06:58:21;4.00;;;3.00;;
64903;SDS011;51401;48.882;12.598;2024-03-25T07:00:48;4.35;;;2.97;;
64903;SDS011;51401;48.882;12.598;2024-03-25T07:03:23;4.93;;;2.47;;
64903;SDS011;51401;48.882;12.598;2024-03-25T07:05:49;4.30;;;2.58;;
64903;SDS011;51401;48.882;12.598;2024-03-25T07:08:20;2.63;;;1.92;;
64903;SDS011;51401;48.882;12.598;2024-03-25T07:10:45;10.07;;;3.45;;
64903;SDS011;51401;48.882;12.598;2024-03-25T07:13:11;4.88;;;2.85;;
64903;SDS011;51401;48.882;12.598;2024-03-25T07:15:37;4.82;;;3.05;;
64903;SDS011;51401;48.882;12.598;2024-03-25T07:18:02;6.18;;;3.17;;
64903;SDS011;51401;48.882;12.598;2024-03-25T07:20:28;3.83;;;3.20;;
64903;SDS011;51401;48.882;12.598;2024-03-25T07:22:54;4.35;;;2.88;;
64903;SDS011;51401;48.882;12.598;2024-03-25T07:25:20;4.63;;;3.03;;
64903;SDS011;51401;48.882;12.598;2024-03-25T07:27:46;5.95;;;3.45;;
64903;SDS011;51401;48.882;12.598;2024-03-25T07:30:11;4.03;;;2.78;;
64903;SDS011;51401;48.882;12.598;2024-03-25T07:32:37;3.67;;;2.38;;
64903;SDS011;51401;48.882;12.598;2024-03-25T07:35:03;4.47;;;2.70;;
64903;SDS011;51401;48.882;12.598;2024-03-25T07:37:29;3.58;;;2.53;;
64903;SDS011;51401;48.882;12.598;2024-03-25T07:39:55;3.45;;;2.53;;
64903;SDS011;51401;48.882;12.598;2024-03-25T07:42:20;3.45;;;2.28;;
64903;SDS011;51401;48.882;12.598;2024-03-25T07:44:46;5.30;;;2.85;;
64903;SDS011;51401;48.882;12.598;2024-03-25T07:47:12;3.10;;;2.80;;
64903;SDS011;51401;48.882;12.598;2024-03-25T07:49:37;4.30;;;2.60;;
64903;SDS011;51401;48.882;12.598;2024-03-25T07:52:04;5.88;;;2.75;;
64903;SDS011;51401;48.882;12.598;2024-03-25T07:54:30;4.88;;;2.60;;
64903;SDS011;51401;48.882;12.598;2024-03-25T07:56:55;3.13;;;2.33;;
64903;SDS011;51401;48.882;12.598;2024-03-25T07:59:21;3.67;;;2.53;;
64903;SDS011;51401;48.882;12.598;2024-03-25T08:01:46;3.10;;;2.78;;
64903;SDS011;51401;48.882;12.598;2024-03-25T08:04:11;6.60;;;3.03;;
64903;SDS011;51401;48.882;12.598;2024-03-25T08:06:36;4.03;;;2.90;;
64903;SDS011;51401;48.882;12.598;2024-03-25T08:09:02;4.03;;;2.47;;
64903;SDS011;51401;48.882;12.598;2024-03-25T08:11:30;4.10;;;2.78;;
64903;SDS011;51401;48.882;12.598;2024-03-25T08:13:58;3.65;;;2.60;;
64903;SDS011;51401;48.882;12.598;2024-03-25T08:16:24;4.10;;;2.50;;
64903;SDS011;51401;48.882;12.598;2024-03-25T08:18:49;6.25;;;2.80;;
64903;SDS011;51401;48.882;12.598;2024-03-25T08:21:15;3.03;;;2.30;;
64903;SDS011;51401;48.882;12.598;2024-03-25T08:23:41;4.13;;;2.55;;
64903;SDS011;51401;48.882;12.598;2024-03-25T08:26:06;3.92;;;2.65;;
64903;SDS011;51401;48.882;12.598;2024-03-25T08:28:32;3.58;;;2.40;;
64903;SDS011;51401;48.882;12.598;2024-03-25T08:30:57;3.97;;;2.10;;
64903;SDS011;51401;48.882;12.598;2024-03-25T08:33:22;3.40;;;2.27;;
64903;SDS011;51401;48.882;12.598;2024-03-25T08:35:47;3.53;;;2.37;;
64903;SDS011;51401;48.882;12.598;2024-03-25T08:38:13;3.47;;;2.13;;
64903;SDS011;51401;48.882;12.598;2024-03-25T08:40:38;3.80;;;2.38;;
64903;SDS011;51401;48.882;12.598;2024-03-25T08:43:05;3.42;;;2.20;;
64903;SDS011;51401;48.882;12.598;2024-03-25T08:45:30;3.00;;;2.10;;
64903;SDS011;51401;48.882;12.598;2024-03-25T08:47:55;3.22;;;2.00;;
64903;SDS011;51401;48.882;12.598;2024-03-25T08:50:21;3.77;;;2.40;;
64903;SDS011;51401;48.882;12.598;2024-03-25T08:52:46;3.55;;;2.47;;
64903;SDS011;51401;48.882;12.598;2024-03-25T08:55:11;2.88;;;2.40;;
64903;SDS011;51401;48.882;12.598;2024-03-25T08:57:40;4.00;;;3.00;;
64903;SDS011;51401;48.882;12.598;2024-03-25T09:00:05;5.22;;;2.90;;
64903;SDS011;51401;48.882;12.598;2024-03-25T09:02:35;5.20;;;3.43;;
64903;SDS011;51401;48.882;12.598;2024-03-25T09:05:00;3.85;;;3.35;;
64903;SDS011;51401;48.882;12.598;2024-03-25T09:07:26;4.38;;;2.67;;
64903;SDS011;51401;48.882;12.598;2024-03-25T09:09:51;4.88;;;2.50;;
64903;SDS011;51401;48.882;12.598;2024-03-25T09:12:35;4.90;;;2.83;;
64903;SDS011;51401;48.882;12.598;2024-03-25T09:15:01;3.95;;;2.83;;
64903;SDS011;51401;48.882;12.598;2024-03-25T09:17:26;2.92;;;2.60;;
64903;SDS011;51401;48.882;12.598;2024-03-25T09:19:51;4.88;;;2.40;;
64903;SDS011;51401;48.882;12.598;2024-03-25T09:22:17;3.03;;;2.73;;
64903;SDS011;51401;48.882;12.598;2024-03-25T09:24:42;3.20;;;2.80;;
64903;SDS011;51401;48.882;12.598;2024-03-25T09:27:08;3.77;;;3.13;;
64903;SDS011;51401;48.882;12.598;2024-03-25T09:29:33;4.10;;;2.78;;
64903;SDS011;51401;48.882;12.598;2024-03-25T09:31:58;4.68;;;2.92;;
64903;SDS011;51401;48.882;12.598;2024-03-25T09:34:23;4.20;;;2.92;;
64903;SDS011;51401;48.882;12.598;2024-03-25T09:36:49;3.08;;;2.47;;
64903;SDS011;51401;48.882;12.598;2024-03-25T09:39:14;4.65;;;3.00;;
64903;SDS011;51401;48.882;12.598;2024-03-25T09:41:40;4.63;;;2.40;;
64903;SDS011;51401;48.882;12.598;2024-03-25T09:44:08;4.13;;;2.70;;
64903;SDS011;51401;48.882;12.598;2024-03-25T09:46:34;2.33;;;2.08;;
64903;SDS011;51401;48.882;12.598;2024-03-25T09:49:01;3.83;;;2.28;;
64903;SDS011;51401;48.882;12.598;2024-03-25T09:51:30;2.53;;;2.28;;
64903;SDS011;51401;48.882;12.598;2024-03-25T09:53:56;3.75;;;2.30;;
64903;SDS011;51401;48.882;12.598;2024-03-25T09:56:21;2.90;;;2.38;;
64903;SDS011;51401;48.882;12.598;2024-03-25T09:58:47;2.55;;;2.10;;
64903;SDS011;51401;48.882;12.598;2024-03-25T10:01:13;4.20;;;2.60;;
64903;SDS011;51401;48.882;12.598;2024-03-25T10:03:39;2.30;;;2.10;;
64903;SDS011;51401;48.882;12.598;2024-03-25T10:06:04;2.83;;;2.00;;
64903;SDS011;51401;48.882;12.598;2024-03-25T10:08:29;2.53;;;1.98;;
64903;SDS011;51401;48.882;12.598;2024-03-25T10:10:55;2.33;;;2.13;;
64903;SDS011;51401;48.882;12.598;2024-03-25T10:13:21;5.10;;;2.70;;
64903;SDS011;51401;48.882;12.598;2024-03-25T10:15:49;3.22;;;2.08;;
64903;SDS011;51401;48.882;12.598;2024-03-25T10:18:16;3.70;;;2.50;;
64903;SDS011;51401;48.882;12.598;2024-03-25T10:20:51;3.40;;;2.60;;
64903;SDS011;51401;48.882;12.598;2024-03-25T10:23:23;3.95;;;2.40;;
64903;SDS011;51401;48.882;12.598;2024-03-25T10:25:51;2.42;;;2.03;;
64903;SDS011;51401;48.882;12.598;2024-03-25T10:28:17;4.40;;;1.90;;
64903;SDS011;51401;48.882;12.598;2024-03-25T10:30:42;3.13;;;1.83;;
64903;SDS011;51401;48.882;12.598;2024-03-25T10:33:08;2.33;;;1.73;;
64903;SDS011;51401;48.882;12.598;2024-03-25T10:35:34;3.28;;;2.00;;
64903;SDS011;51401;48.882;12.598;2024-03-25T10:38:01;2.78;;;1.70;;
64903;SDS011;51401;48.882;12.598;2024-03-25T10:40:37;2.65;;;1.92;;
64903;SDS011;51401;48.882;12.598;2024-03-25T10:43:05;3.67;;;1.90;;
64903;SDS011;51401;48.882;12.598;2024-03-25T10:45:33;2.30;;;1.73;;
64903;SDS011;51401;48.882;12.598;2024-03-25T10:48:15;4.03;;;1.80;;
64903;SDS011;51401;48.882;12.598;2024-03-25T10:50:45;3.35;;;2.35;;
64903;SDS011;51401;48.882;12.598;2024-03-25T10:53:11;2.78;;;2.08;;
64903;SDS011;51401;48.882;12.598;2024-03-25T10:55:37;1.70;;;1.58;;
64903;SDS011;51401;48.882;12.598;2024-03-25T10:58:03;2.58;;;1.42;;
64903;SDS011;51401;48.882;12.598;2024-03-25T11:00:30;3.35;;;1.50;;
64903;SDS011;51401;48.882;12.598;2024-03-25T11:02:56;2.13;;;1.60;;
64903;SDS011;51401;48.882;12.598;2024-03-25T11:05:22;2.10;;;1.30;;
64903;SDS011;51401;48.882;12.598;2024-03-25T11:07:48;2.50;;;1.27;;
64903;SDS011;51401;48.882;12.598;2024-03-25T11:10:13;1.98;;;1.40;;
64903;SDS011;51401;48.882;12.598;2024-03-25T11:12:40;2.28;;;1.70;;
64903;SDS011;51401;48.882;12.598;2024-03-25T11:15:07;3.10;;;1.58;;
64903;SDS011;51401;48.882;12.598;2024-03-25T11:17:33;3.67;;;1.40;;
64903;SDS011;51401;48.882;12.598;2024-03-25T11:20:11;3.72;;;1.35;;
64903;SDS011;51401;48.882;12.598;2024-03-25T11:22:48;1.83;;;1.42;;
64903;SDS011;51401;48.882;12.598;2024-03-25T11:25:20;2.60;;;1.88;;
64903;SDS011;51401;48.882;12.598;2024-03-25T11:27:46;1.90;;;1.30;;
64903;SDS011;51401;48.882;12.598;2024-03-25T11:30:12;2.28;;;1.40;;
64903;SDS011;51401;48.882;12.598;2024-03-25T11:32:51;1.83;;;1.50;;
64903;SDS011;51401;48.882;12.598;2024-03-25T11:35:17;2.97;;;1.50;;
64903;SDS011;51401;48.882;12.598;2024-03-25T11:37:43;2.25;;;1.30;;
64903;SDS011;51401;48.882;12.598;2024-03-25T11:40:09;2.25;;;1.50;;
64903;SDS011;51401;48.882;12.598;2024-03-25T11:42:40;2.30;;;1.52;;
64903;SDS011;51401;48.882;12.598;2024-03-25T11:45:06;2.80;;;1.90;;
64903;SDS011;51401;48.882;12.598;2024-03-25T11:47:32;2.20;;;1.50;;
64903;SDS011;51401;48.882;12.598;2024-03-25T11:49:58;1.90;;;1.48;;
64903;SDS011;51401;48.882;12.598;2024-03-25T11:52:23;2.72;;;1.55;;
64903;SDS011;51401;48.882;12.598;2024-03-25T11:54:55;2.73;;;1.40;;
64903;SDS011;51401;48.882;12.598;2024-03-25T11:57:21;1.73;;;1.17;;
64903;SDS011;51401;48.882;12.598;2024-03-25T11:59:47;2.38;;;1.63;;
64903;SDS011;51401;48.882;12.598;2024-03-25T12:02:14;3.70;;;1.95;;
64903;SDS011;51401;48.882;12.598;2024-03-25T12:04:42;2.35;;;1.42;;
64903;SDS011;51401;48.882;12.598;2024-03-25T12:07:09;1.60;;;1.38;;
64903;SDS011;51401;48.882;12.598;2024-03-25T12:09:36;2.10;;;1.45;;
64903;SDS011;51401;48.882;12.598;2024-03-25T12:12:20;2.70;;;1.73;;
64903;SDS011;51401;48.882;12.598;2024-03-25T12:14:45;2.33;;;1.45;;
64903;SDS011;51401;48.882;12.598;2024-03-25T12:17:10;2.38;;;1.35;;
64903;SDS011;51401;48.882;12.598;2024-03-25T12:19:36;1.80;;;1.70;;
64903;SDS011;51401;48.882;12.598;2024-03-25T12:22:01;2.70;;;1.57;;
64903;SDS011;51401;48.882;12.598;2024-03-25T12:24:28;2.25;;;1.42;;
64903;SDS011;51401;48.882;12.598;2024-03-25T12:26:54;2.10;;;1.40;;
64903;SDS011;51401;48.882;12.598;2024-03-25T12:29:19;2.10;;;1.38;;
64903;SDS011;51401;48.882;12.598;2024-03-25T12:31:53;3.03;;;1.57;;
64903;SDS011;51401;48.882;12.598;2024-03-25T12:34:19;2.58;;;2.03;;
64903;SDS011;51401;48.882;12.598;2024-03-25T12:36:44;2.73;;;1.77;;
64903;SDS011;51401;48.882;12.598;2024-03-25T12:39:14;1.70;;;1.48;;
64903;SDS011;51401;48.882;12.598;2024-03-25T12:41:40;3.05;;;1.80;;
64903;SDS011;51401;48.882;12.598;2024-03-25T12:44:06;2.45;;;1.48;;
64903;SDS011;51401;48.882;12.598;2024-03-25T12:46:32;4.20;;;1.55;;
64903;SDS011;51401;48.882;12.598;2024-03-25T12:48:58;2.05;;;1.58;;
64903;SDS011;51401;48.882;12.598;2024-03-25T12:51:23;2.35;;;1.42;;
64903;SDS011;51401;48.882;12.598;2024-03-25T12:53:48;2.33;;;1.83;;
64903;SDS011;51401;48.882;12.598;2024-03-25T12:56:14;2.80;;;1.85;;
64903;SDS011;51401;48.882;12.598;2024-03-25T12:58:39;2.80;;;1.73;;
64903;SDS011;51401;48.882;12.598;2024-03-25T13:01:04;2.88;;;1.60;;
64903;SDS011;51401;48.882;12.598;2024-03-25T13:03:30;3.47;;;1.75;;
64903;SDS011;51401;48.882;12.598;2024-03-25T13:05:56;2.95;;;2.00;;
64903;SDS011;51401;48.882;12.598;2024-03-25T13:08:23;3.47;;;2.05;;
64903;SDS011;51401;48.882;12.598;2024-03-25T13:10:48;2.85;;;2.00;;
64903;SDS011;51401;48.882;12.598;2024-03-25T13:13:14;3.93;;;1.83;;
64903;SDS011;51401;48.882;12.598;2024-03-25T13:15:39;2.17;;;1.70;;
64903;SDS011;51401;48.882;12.598;2024-03-25T13:18:05;1.97;;;1.67;;
64903;SDS011;51401;48.882;12.598;2024-03-25T13:20:30;2.28;;;1.90;;
64903;SDS011;51401;48.882;12.598;2024-03-25T13:22:55;3.40;;;2.10;;
64903;SDS011;51401;48.882;12.598;2024-03-25T13:25:24;4.25;;;2.33;;
64903;SDS011;51401;48.882;12.598;2024-03-25T13:27:49;2.77;;;1.93;;
64903;SDS011;51401;48.882;12.598;2024-03-25T13:30:14;2.33;;;1.80;;
64903;SDS011;51401;48.882;12.598;2024-03-25T13:32:40;4.55;;;2.17;;
64903;SDS011;51401;48.882;12.598;2024-03-25T13:35:05;3.00;;;1.83;;
64903;SDS011;51401;48.882;12.598;2024-03-25T13:37:31;2.97;;;2.00;;
64903;SDS011;51401;48.882;12.598;2024-03-25T13:39:56;1.98;;;1.65;;
64903;SDS011;51401;48.882;12.598;2024-03-25T13:42:22;2.78;;;1.92;;
64903;SDS011;51401;48.882;12.598;2024-03-25T13:44:47;2.38;;;1.70;;
64903;SDS011;51401;48.882;12.598;2024-03-25T13:47:13;3.50;;;1.95;;
64903;SDS011;51401;48.882;12.598;2024-03-25T13:49:38;2.47;;;2.13;;
64903;SDS011;51401;48.882;12.598;2024-03-25T13:52:03;2.47;;;1.92;;
64903;SDS011;51401;48.882;12.598;2024-03-25T13:54:29;2.60;;;2.20;;
64903;SDS011;51401;48.882;12.598;2024-03-25T13:56:58;3.55;;;1.80;;
64903;SDS011;51401;48.882;12.598;2024-03-25T13:59:23;2.60;;;2.20;;
64903;SDS011;51401;48.882;12.598;2024-03-25T14:01:49;2.85;;;2.17;;
64903;SDS011;51401;48.882;12.598;2024-03-25T14:04:14;2.72;;;2.30;;
64903;SDS011;51401;48.882;12.598;2024-03-25T14:06:40;2.35;;;2.00;;
64903;SDS011;51401;48.882;12.598;2024-03-25T14:09:06;2.55;;;2.00;;
64903;SDS011;51401;48.882;12.598;2024-03-25T14:11:34;2.00;;;1.77;;
64903;SDS011;51401;48.882;12.598;2024-03-25T14:14:00;3.22;;;2.40;;
64903;SDS011;51401;48.882;12.598;2024-03-25T14:16:26;2.10;;;1.90;;
64903;SDS011;51401;48.882;12.598;2024-03-25T14:18:51;2.47;;;2.05;;
64903;SDS011;51401;48.882;12.598;2024-03-25T14:21:17;2.70;;;2.25;;
64903;SDS011;51401;48.882;12.598;2024-03-25T14:23:42;3.50;;;2.13;;
64903;SDS011;51401;48.882;12.598;2024-03-25T14:26:09;3.13;;;1.90;;
64903;SDS011;51401;48.882;12.598;2024-03-25T14:28:34;2.30;;;2.10;;
64903;SDS011;51401;48.882;12.598;2024-03-25T14:31:00;2.75;;;2.17;;